Time;durP1;ratioP1;P1;durP2;ratioP2;P2;SDS_P1;SDS_P2;PMS_P1;PMS_P2;Temp;Humidity;BMP_temperature;BMP_pressure;BME280_temperature;BME280_humidity;BME280_pressure;Samples;Min_cycle;Max_cycle;Signal;HPM_P1;HPM_P2
2020/12/11 00:02:01;;;;;;;4.78;3.42;;;;;;;18.90;46.87;100082.78;4864284;29;20090;-77
2020/12/11 00:04:26;;;;;;;3.95;3.35;;;;;;;18.83;47.00;100073.31;4862740;29;20042;-76
2020/12/11 00:06:51;;;;;;;5.43;3.80;;;;;;;18.87;47.11;100069.75;4874393;29;20070;-76
2020/12/11 00:09:17;;;;;;;5.35;3.42;;;;;;;18.85;46.84;100055.81;4875460;29;20041;-76
2020/12/11 00:11:42;;;;;;;3.60;3.25;;;;;;;18.89;46.95;100065.34;4854385;29;20029;-77
2020/12/11 00:14:07;;;;;;;4.53;3.20;;;;;;;18.84;46.90;100059.31;4863373;29;20128;-77
2020/12/11 00:16:35;;;;;;;4.68;3.15;;;;;;;18.86;47.02;100061.91;4845840;29;20045;-77
2020/12/11 00:19:01;;;;;;;3.72;2.92;;;;;;;18.83;46.82;100044.50;4823439;29;20038;-77
2020/12/11 00:21:26;;;;;;;4.45;3.45;;;;;;;18.87;46.84;100048.78;4842211;29;20045;-77
2020/12/11 00:23:51;;;;;;;3.97;3.15;;;;;;;18.83;46.90;100051.47;4862693;29;20497;-77
2020/12/11 00:26:17;;;;;;;5.72;3.63;;;;;;;18.78;46.95;100043.72;4840376;29;20508;-77
2020/12/11 00:28:42;;;;;;;3.25;2.75;;;;;;;18.76;46.80;100037.66;4831633;29;20033;-77
2020/12/11 00:31:07;;;;;;;5.22;3.67;;;;;;;18.78;46.88;100038.50;4822030;29;20044;-77
2020/12/11 00:33:33;;;;;;;4.32;3.28;;;;;;;18.82;46.91;100044.53;4844027;29;20034;-77
2020/12/11 00:35:58;;;;;;;4.28;3.08;;;;;;;18.74;46.66;100031.56;4845436;29;20500;-77
2020/12/11 00:38:24;;;;;;;3.95;3.00;;;;;;;18.78;46.84;100040.25;4817284;29;20034;-77
2020/12/11 00:40:49;;;;;;;5.25;3.60;;;;;;;18.78;46.60;100032.38;4862053;29;20059;-78
2020/12/11 00:43:14;;;;;;;4.22;2.92;;;;;;;18.74;46.73;100030.72;4843850;29;20037;-76
2020/12/11 00:45:40;;;;;;;4.95;3.75;;;;;;;18.76;46.88;100026.31;4847857;29;20040;-76
2020/12/11 00:48:06;;;;;;;4.28;3.05;;;;;;;18.75;46.79;100022.81;4862511;29;20093;-77
2020/12/11 00:50:31;;;;;;;5.43;3.05;;;;;;;18.74;46.78;100022.84;4864006;29;20034;-77
2020/12/11 00:52:57;;;;;;;4.75;3.17;;;;;;;18.77;46.58;100015.81;4841129;29;20034;-76
2020/12/11 00:55:22;;;;;;;4.35;3.53;;;;;;;18.72;46.80;100001.94;4844710;29;20034;-77
2020/12/11 00:57:48;;;;;;;5.20;3.28;;;;;;;18.75;46.72;99998.38;4834365;29;20102;-77
2020/12/11 01:00:17;;;;;;;4.10;3.40;;;;;;;18.76;46.70;99998.38;4842200;29;20034;-77
2020/12/11 01:02:43;;;;;;;3.47;3.10;;;;;;;18.69;46.75;99980.19;4862461;29;20033;-77
2020/12/11 01:05:08;;;;;;;3.88;3.47;;;;;;;18.65;46.57;99973.28;4862511;29;20485;-77
2020/12/11 01:07:34;;;;;;;3.97;3.25;;;;;;;18.68;46.74;99981.09;4842720;29;20441;-77
2020/12/11 01:10:00;;;;;;;4.35;3.20;;;;;;;18.71;46.61;99976.63;4832126;29;20064;-77
2020/12/11 01:12:27;;;;;;;7.53;4.03;;;;;;;18.63;46.59;99960.22;4860952;29;20021;-78
2020/12/11 01:14:52;;;;;;;3.67;3.33;;;;;;;18.63;46.61;99947.13;4861787;29;20405;-77
2020/12/11 01:17:18;;;;;;;5.28;3.80;;;;;;;18.64;46.75;99935.75;4860222;29;20036;-77
2020/12/11 01:19:43;;;;;;;3.88;2.88;;;;;;;18.70;46.58;99946.09;4862213;29;20061;-77
2020/12/11 01:22:10;;;;;;;4.45;2.95;;;;;;;18.68;46.81;99933.94;4861622;29;20124;-77
2020/12/11 01:24:35;;;;;;;3.97;3.15;;;;;;;18.69;46.26;99933.06;4843055;29;20057;-77
2020/12/11 01:27:00;;;;;;;4.07;2.80;;;;;;;18.65;46.43;99918.28;4820610;29;20026;-77
2020/12/11 01:29:26;;;;;;;6.20;3.55;;;;;;;18.66;46.75;99920.88;4861660;29;20081;-77
2020/12/11 01:31:55;;;;;;;4.07;3.45;;;;;;;18.64;46.72;99911.31;4829651;29;20125;-78
2020/12/11 01:34:21;;;;;;;3.67;3.03;;;;;;;18.66;46.42;99907.78;4830355;29;20030;-78
2020/12/11 01:36:46;;;;;;;4.30;3.58;;;;;;;18.65;46.64;99899.97;4862677;29;20085;-77
2020/12/11 01:39:12;;;;;;;4.53;3.38;;;;;;;18.65;46.51;99885.09;4842652;29;20034;-77
2020/12/11 01:41:37;;;;;;;3.50;2.83;;;;;;;18.53;46.54;99865.25;4856562;29;20388;-77
2020/12/11 01:44:10;;;;;;;3.30;3.00;;;;;;;18.63;46.52;99878.16;4861553;29;20029;-77
2020/12/11 01:46:38;;;;;;;4.47;3.10;;;;;;;18.63;46.53;99879.03;4861555;29;20041;-77
2020/12/11 01:49:04;;;;;;;4.35;3.38;;;;;;;18.61;46.45;99875.59;4861349;29;20397;-78
2020/12/11 01:51:29;;;;;;;3.15;2.83;;;;;;;18.62;46.49;99881.69;4862056;29;20038;-78
2020/12/11 01:53:55;;;;;;;3.90;2.55;;;;;;;18.62;46.43;99874.69;4846082;29;20044;-77
2020/12/11 01:56:25;;;;;;;4.55;3.40;;;;;;;18.56;46.36;99865.16;4837405;29;20038;-78
2020/12/11 01:58:59;;;;;;;3.78;2.97;;;;;;;18.54;46.41;99855.63;4845855;29;20029;-77
2020/12/11 02:01:24;;;;;;;3.25;2.80;;;;;;;18.57;46.41;99855.56;4865323;29;20036;-78
2020/12/11 02:03:53;;;;;;;4.57;3.60;;;;;;;18.59;46.54;99866.03;4860763;29;20029;-77
2020/12/11 02:06:18;;;;;;;4.57;2.85;;;;;;;18.60;46.32;99859.91;4845639;29;20061;-77
2020/12/11 02:08:43;;;;;;;3.75;2.97;;;;;;;18.55;46.51;99857.38;4860940;29;20065;-78
2020/12/11 02:11:22;;;;;;;3.85;3.20;;;;;;;18.51;46.52;99850.47;4860964;29;20474;-78
2020/12/11 02:13:47;;;;;;;3.28;2.60;;;;;;;18.52;46.70;99860.03;4845915;29;20033;-77
2020/12/11 02:16:13;;;;;;;3.78;2.92;;;;;;;18.54;46.38;99860.88;4861996;29;20076;-78
2020/12/11 02:18:40;;;;;;;4.05;2.67;;;;;;;18.54;46.30;99864.34;4861772;29;20037;-78
2020/12/11 02:21:05;;;;;;;3.95;2.85;;;;;;;18.50;46.43;99848.72;4861554;29;20033;-77
2020/12/11 02:23:31;;;;;;;3.80;2.78;;;;;;;18.53;46.21;99846.91;4844332;29;20053;-78
2020/12/11 02:25:57;;;;;;;4.13;3.10;;;;;;;18.52;46.44;99844.31;4859214;29;20042;-77
2020/12/11 02:28:22;;;;;;;3.72;2.47;;;;;;;18.49;46.37;99844.38;4860570;29;20116;-78
2020/12/11 02:30:47;;;;;;;5.53;3.47;;;;;;;18.51;46.24;99851.31;4829897;29;20125;-77
2020/12/11 02:33:13;;;;;;;3.63;2.83;;;;;;;18.48;46.45;99847.91;4838954;29;20140;-77
2020/12/11 02:35:41;;;;;;;4.35;3.05;;;;;;;18.49;46.65;99850.47;4826886;29;20034;-77
2020/12/11 02:38:09;;;;;;;4.60;3.05;;;;;;;18.49;46.38;99852.25;4841945;29;20030;-77
2020/12/11 02:40:45;;;;;;;3.83;3.15;;;;;;;18.50;46.24;99838.25;4817001;29;20041;-77
2020/12/11 02:43:11;;;;;;;3.10;2.80;;;;;;;18.57;46.06;99843.31;4856820;29;20032;-77
2020/12/11 02:45:36;;;;;;;4.43;3.15;;;;;;;18.59;46.13;99830.22;4860347;29;20034;-77
2020/12/11 02:48:01;;;;;;;3.78;2.80;;;;;;;18.57;46.19;99819.75;4860514;29;20032;-77
2020/12/11 02:50:27;;;;;;;4.20;2.72;;;;;;;18.65;46.61;99824.00;4829690;29;20133;-77
2020/12/11 02:52:52;;;;;;;4.13;3.33;;;;;;;18.66;46.16;99828.34;4844745;29;20037;-77
2020/12/11 02:55:17;;;;;;;3.55;2.75;;;;;;;18.69;46.07;99823.94;4833594;29;20065;-77
2020/12/11 02:57:43;;;;;;;3.28;2.97;;;;;;;18.69;46.16;99815.22;4848182;29;20128;-77
2020/12/11 03:00:08;;;;;;;2.88;2.60;;;;;;;18.73;46.13;99814.22;4859551;29;20045;-77
2020/12/11 03:02:33;;;;;;;3.17;2.72;;;;;;;18.65;46.09;99792.59;4840738;29;20030;-77
2020/12/11 03:04:59;;;;;;;4.22;2.80;;;;;;;18.71;46.26;99801.16;4843511;29;20036;-77
2020/12/11 03:07:24;;;;;;;2.95;2.22;;;;;;;18.66;46.27;99789.94;4844589;29;20046;-77
2020/12/11 03:09:49;;;;;;;2.97;2.67;;;;;;;18.71;46.04;99790.69;4829702;29;20041;-77
2020/12/11 03:12:16;;;;;;;2.95;2.55;;;;;;;18.73;46.24;99791.50;4841320;29;20121;-77
2020/12/11 03:14:41;;;;;;;2.75;2.20;;;;;;;18.71;46.17;99777.59;4829547;29;20041;-76
2020/12/11 03:17:06;;;;;;;3.38;2.65;;;;;;;18.75;46.12;99784.50;4864541;29;20066;-76
2020/12/11 03:19:32;;;;;;;4.47;3.03;;;;;;;18.69;46.08;99765.44;4842442;29;20030;-77
2020/12/11 03:21:57;;;;;;;3.22;2.70;;;;;;;18.80;46.33;99763.44;4821667;29;20038;-77
2020/12/11 03:24:22;;;;;;;3.03;2.30;;;;;;;18.76;46.17;99761.78;4842652;29;20077;-77
2020/12/11 03:26:48;;;;;;;4.30;3.15;;;;;;;18.80;46.23;99759.06;4859898;29;20089;-77
2020/12/11 03:29:13;;;;;;;3.55;2.72;;;;;;;18.75;46.09;99733.88;4859394;29;20037;-77
2020/12/11 03:31:39;;;;;;;3.28;2.45;;;;;;;18.79;46.32;99719.81;4859527;29;20041;-77
2020/12/11 03:34:04;;;;;;;3.28;2.25;;;;;;;18.79;46.30;99719.81;4861877;29;20029;-76
2020/12/11 03:36:29;;;;;;;2.83;2.38;;;;;;;18.75;46.28;99697.19;4832816;29;20077;-77
2020/12/11 03:38:55;;;;;;;2.85;2.53;;;;;;;18.79;46.27;99694.47;4862646;29;20030;-76
2020/12/11 03:41:20;;;;;;;2.58;2.08;;;;;;;18.80;46.29;99701.44;4849338;29;20481;-77
2020/12/11 03:43:45;;;;;;;3.63;2.67;;;;;;;18.78;46.23;99686.66;4864122;29;20037;-77
2020/12/11 03:46:19;;;;;;;3.33;2.50;;;;;;;18.80;46.23;99675.25;4849135;29;20034;-76
2020/12/11 03:48:45;;;;;;;;;;;;;;;18.84;46.24;99673.41;4864590;29;20059;-77
2020/12/11 03:51:18;;;;;;;3.45;2.45;;;;;;;18.81;46.13;99663.03;4863103;29;19920;-77
2020/12/11 03:53:45;;;;;;;2.92;2.60;;;;;;;18.76;46.30;99654.41;4842589;29;20090;-77
2020/12/11 03:56:12;;;;;;;3.33;2.10;;;;;;;18.79;46.13;99670.91;4854684;29;20042;-78
2020/12/11 03:58:38;;;;;;;3.40;2.78;;;;;;;18.81;46.18;99666.50;4862973;29;20109;-77
2020/12/11 04:01:03;;;;;;;3.42;2.42;;;;;;;18.78;46.27;99658.72;4832579;29;20065;-78
2020/12/11 04:03:29;;;;;;;2.60;1.90;;;;;;;18.82;46.12;99662.97;4847981;29;20059;-78
2020/12/11 04:05:54;;;;;;;3.05;2.15;;;;;;;18.86;46.03;99658.50;4863050;29;20037;-78
2020/12/11 04:08:19;;;;;;;2.53;1.90;;;;;;;18.80;46.40;99638.59;4846969;29;20069;-78
2020/12/11 04:10:45;;;;;;;2.70;2.30;;;;;;;18.80;46.34;99633.34;4844473;29;20053;-77
2020/12/11 04:13:11;;;;;;;2.88;2.17;;;;;;;18.84;46.25;99634.09;4847217;29;20030;-77
2020/12/11 04:15:36;;;;;;;2.97;2.13;;;;;;;18.85;46.33;99623.59;4830717;29;20549;-77
2020/12/11 04:18:01;;;;;;;2.72;2.00;;;;;;;18.84;46.23;99613.16;4833528;29;20453;-77
2020/12/11 04:20:27;;;;;;;2.50;1.90;;;;;;;18.86;46.17;99621.84;4848336;29;20033;-77
2020/12/11 04:22:52;;;;;;;2.63;2.00;;;;;;;18.78;46.35;99588.00;4833494;29;20057;-77
2020/12/11 04:25:17;;;;;;;2.25;1.98;;;;;;;18.87;46.04;99594.75;4832801;29;20474;-77
2020/12/11 04:27:43;;;;;;;3.33;2.33;;;;;;;18.86;46.17;99593.88;4849468;29;20038;-77
2020/12/11 04:30:08;;;;;;;2.65;2.03;;;;;;;18.84;46.20;99581.72;4849297;29;20041;-77
2020/12/11 04:32:33;;;;;;;2.63;1.90;;;;;;;18.89;46.30;99583.34;4847303;29;20113;-77
2020/12/11 04:34:59;;;;;;;2.70;2.08;;;;;;;18.88;46.27;99583.38;4845918;29;20056;-77
2020/12/11 04:37:24;;;;;;;2.13;1.88;;;;;;;18.81;46.21;99566.97;4865194;29;20038;-78
2020/12/11 04:39:49;;;;;;;2.30;1.80;;;;;;;18.89;46.10;99574.63;4834996;29;20030;-78
2020/12/11 04:42:15;;;;;;;3.33;2.63;;;;;;;18.88;46.30;99572.88;4858144;29;20046;-78
2020/12/11 04:44:41;;;;;;;2.80;2.00;;;;;;;18.88;46.27;99565.03;4863140;29;20033;-78
2020/12/11 04:47:07;;;;;;;2.40;1.70;;;;;;;18.84;46.08;99552.91;4845260;29;20036;-78
2020/12/11 04:49:35;;;;;;;3.58;2.20;;;;;;;18.77;46.29;99554.00;4846982;29;20389;-78
2020/12/11 04:52:04;;;;;;;4.20;2.05;;;;;;;18.90;46.13;99563.25;4860730;29;20386;-78
2020/12/11 04:54:35;;;;;;;2.70;2.00;;;;;;;18.85;46.18;99554.63;4863876;29;20077;-78
2020/12/11 04:57:02;;;;;;;3.88;2.92;;;;;;;18.86;46.04;99545.88;4865081;29;20034;-78
2020/12/11 04:59:28;;;;;;;2.25;1.70;;;;;;;18.88;46.33;99558.03;4863867;29;20025;-78
2020/12/11 05:01:58;;;;;;;2.35;1.98;;;;;;;18.85;45.91;99541.53;4863149;29;20041;-78
2020/12/11 05:04:25;;;;;;;2.80;1.60;;;;;;;18.82;46.00;99531.16;4863076;29;20025;-77
2020/12/11 05:06:51;;;;;;;2.15;1.70;;;;;;;18.88;46.05;99538.84;4848120;29;20030;-77
2020/12/11 05:09:20;;;;;;;1.83;1.55;;;;;;;18.87;46.35;99537.13;4862940;29;20082;-78
2020/12/11 05:11:47;;;;;;;2.65;1.50;;;;;;;18.91;46.15;99534.38;4863426;29;20433;-78
2020/12/11 05:14:19;;;;;;;2.50;2.17;;;;;;;18.91;46.24;99529.16;4847806;29;20025;-78
2020/12/11 05:17:14;;;;;;;2.58;1.77;;;;;;;18.90;46.19;99530.03;4847688;29;20037;-78
2020/12/11 05:19:51;;;;;;;1.95;1.60;;;;;;;18.88;46.37;99520.50;4832401;29;20481;-78
2020/12/11 05:22:18;;;;;;;2.60;1.92;;;;;;;18.90;46.27;99508.22;4835144;29;20105;-78
2020/12/11 05:24:49;;;;;;;2.72;2.15;;;;;;;18.84;45.99;99504.00;4861775;29;20057;-78
2020/12/11 05:27:31;;;;;;;2.97;1.75;;;;;;;18.95;46.11;99508.97;4862386;29;20038;-78
2020/12/11 05:29:57;;;;;;;2.38;1.85;;;;;;;18.89;46.30;99496.03;4863906;29;20109;-78
2020/12/11 05:32:42;;;;;;;2.15;1.60;;;;;;;18.90;46.06;99488.13;4831602;29;20447;-79
2020/12/11 05:35:21;;;;;;;2.78;2.40;;;;;;;18.95;46.13;99492.41;4861969;29;20025;-79
2020/12/11 05:38:04;;;;;;;2.28;1.65;;;;;;;18.94;46.18;99480.19;4862072;29;20030;-79
2020/12/11 05:40:35;;;;;;;2.83;2.22;;;;;;;18.95;46.11;99472.31;4921927;24;20145;-78
2020/12/11 05:43:18;;;;;;;3.38;1.92;;;;;;;18.96;46.24;99468.75;4809995;29;20115;-77
2020/12/11 05:45:52;;;;;;;2.10;1.60;;;;;;;19.05;46.18;99473.75;4825499;29;20022;-75
2020/12/11 05:48:18;;;;;;;3.78;1.85;;;;;;;19.04;45.95;99458.06;4825933;29;20034;-76
2020/12/11 05:50:44;;;;;;;2.40;1.60;;;;;;;19.03;46.14;99456.34;4825206;29;20026;-77
2020/12/11 05:53:09;;;;;;;2.53;1.63;;;;;;;18.96;46.00;99441.69;4794600;29;20049;-76
2020/12/11 05:55:35;;;;;;;5.10;1.80;;;;;;;19.07;46.05;99457.97;4779617;29;20034;-75
2020/12/11 05:58:01;;;;;;;2.65;1.98;;;;;;;19.09;45.88;99462.25;4806429;29;20409;-75
2020/12/11 06:00:26;;;;;;;2.20;1.50;;;;;;;19.06;45.74;99458.88;4823404;29;20070;-75
2020/12/11 06:02:54;;;;;;;2.25;1.50;;;;;;;19.09;46.15;99456.16;4806984;29;20518;-75
2020/12/11 06:05:21;;;;;;;2.00;1.38;;;;;;;19.04;46.14;99450.22;4825221;29;20034;-75
2020/12/11 06:07:48;;;;;;;2.47;1.58;;;;;;;19.04;45.99;99452.81;4823858;29;20411;-75
2020/12/11 06:10:16;;;;;;;1.60;1.30;;;;;;;19.07;45.94;99465.84;4807355;29;20098;-75
2020/12/11 06:12:41;;;;;;;2.78;2.13;;;;;;;18.98;45.78;99453.00;4825484;29;20026;-75
2020/12/11 06:15:22;;;;;;;2.78;1.80;;;;;;;19.04;46.14;99448.44;4825658;29;20504;-75
2020/12/11 06:17:59;;;;;;;3.20;2.03;;;;;;;19.03;45.95;99440.63;4838941;29;20113;-75
2020/12/11 06:20:26;;;;;;;3.65;2.50;;;;;;;19.01;45.95;99440.66;4832315;29;20049;-75
2020/12/11 06:22:52;;;;;;;2.47;1.92;;;;;;;19.03;46.18;99436.25;4825711;29;20113;-75
2020/12/11 06:25:31;;;;;;;3.92;2.20;;;;;;;19.07;45.99;99432.63;4824077;29;20117;-75
2020/12/11 06:27:59;;;;;;;4.07;2.35;;;;;;;19.02;45.77;99423.19;4790889;29;20176;-75
2020/12/11 06:30:33;;;;;;;7.07;2.72;;;;;;;19.04;46.33;99437.09;4807280;29;20486;-75
2020/12/11 06:33:00;;;;;;;3.28;2.63;;;;;;;19.08;46.22;99430.88;4787926;29;20088;-75
2020/12/11 06:35:27;;;;;;;3.67;2.60;;;;;;;19.08;45.93;99430.88;4790662;29;20034;-73
2020/12/11 06:37:53;;;;;;;5.10;2.30;;;;;;;19.11;45.90;99428.16;4805891;29;20026;-77
2020/12/11 06:40:50;;;;;;;6.70;2.65;;;;;;;19.16;46.07;99426.25;4791884;29;20494;-77
2020/12/11 06:43:44;;;;;;;5.40;2.50;;;;;;;19.11;46.01;99412.41;4806366;29;20064;-77
2020/12/11 06:46:10;;;;;;;;;;;;;;;19.13;46.39;99416.72;4806329;29;20521;-76
2020/12/11 06:48:35;;;;;;;7.38;4.20;;;;;;;19.13;46.12;99406.25;4805862;29;19968;-77
2020/12/11 06:51:04;;;;;;;6.15;2.70;;;;;;;19.12;45.93;99401.91;4776189;29;20113;-75
2020/12/11 06:53:40;;;;;;;5.28;2.65;;;;;;;19.10;46.32;99387.13;4804361;29;20038;-76
2020/12/11 06:56:06;;;;;;;6.35;2.85;;;;;;;19.16;45.95;99393.06;4802087;29;20031;-76
2020/12/11 06:58:31;;;;;;;4.93;2.40;;;;;;;19.10;46.12;99382.75;4771752;29;20452;-76
2020/12/11 07:00:57;;;;;;;5.45;2.50;;;;;;;19.12;46.31;99382.69;4790537;29;20049;-77
2020/12/11 07:03:25;;;;;;;5.28;2.90;;;;;;;19.12;46.46;99375.69;4785582;29;20030;-76
2020/12/11 07:05:59;;;;;;;4.82;2.95;;;;;;;19.15;46.25;99377.38;4805305;29;20038;-77
2020/12/11 07:08:25;;;;;;;4.80;2.58;;;;;;;19.13;46.33;99376.56;4789989;29;20038;-76
2020/12/11 07:10:51;;;;;;;4.80;2.38;;;;;;;19.11;46.11;99366.13;4773660;30;20027;-77
2020/12/11 07:13:17;;;;;;;3.78;2.10;;;;;;;19.13;46.13;99364.31;4788620;30;20037;-77
2020/12/11 07:15:42;;;;;;;4.07;2.33;;;;;;;19.08;46.23;99361.00;4759078;29;20462;-76
2020/12/11 07:18:15;;;;;;;3.60;2.28;;;;;;;19.17;46.42;99373.81;4795804;29;20043;-76
2020/12/11 07:20:59;;;;;;;3.97;2.35;;;;;;;19.17;46.29;99368.56;4786932;30;20031;-76
2020/12/11 07:23:25;;;;;;;2.95;1.80;;;;;;;19.15;46.31;99373.00;4799426;29;20035;-77
2020/12/11 07:25:53;;;;;;;4.85;3.00;;;;;;;19.07;46.14;99346.19;4806293;29;20064;-75
2020/12/11 07:28:18;;;;;;;4.90;2.85;;;;;;;19.15;46.14;99349.41;4806163;29;20554;-75
2020/12/11 07:30:48;;;;;;;3.60;2.30;;;;;;;19.23;46.32;99363.13;4791405;29;20031;-76
2020/12/11 07:33:14;;;;;;;4.22;2.67;;;;;;;19.21;46.34;99354.44;4772207;30;20035;-76
2020/12/11 07:35:48;;;;;;;3.20;2.35;;;;;;;19.22;46.40;99358.78;4786966;30;20035;-76
2020/12/11 07:38:16;;;;;;;4.38;2.80;;;;;;;19.24;46.30;99358.72;4786834;30;20028;-77
2020/12/11 07:40:42;;;;;;;5.80;2.88;;;;;;;19.26;46.25;99357.78;4788987;29;20054;-75
2020/12/11 07:43:09;;;;;;;4.95;2.60;;;;;;;19.25;46.36;99352.59;4802689;29;20031;-75
2020/12/11 07:45:35;;;;;;;3.58;2.47;;;;;;;19.20;46.22;99346.66;4788184;29;20042;-75
2020/12/11 07:48:02;;;;;;;2.83;2.17;;;;;;;19.26;46.50;99349.91;4804802;29;20035;-76
2020/12/11 07:50:29;;;;;;;4.25;2.90;;;;;;;19.10;46.25;99319.84;4801624;29;20475;-76
2020/12/11 07:52:56;;;;;;;3.85;3.00;;;;;;;19.14;46.05;99331.09;4805814;29;20038;-75
2020/12/11 07:55:23;;;;;;;3.38;2.20;;;;;;;19.20;46.24;99344.03;4806527;29;20367;-75
2020/12/11 07:57:56;;;;;;;2.75;1.80;;;;;;;19.25;46.30;99344.72;4804904;29;20042;-76
2020/12/11 08:00:22;;;;;;;2.38;1.85;;;;;;;19.19;45.99;99335.31;4805746;29;20031;-76
2020/12/11 08:02:52;;;;;;;3.55;2.00;;;;;;;19.24;46.23;99340.38;4780890;29;20049;-76
2020/12/11 08:05:19;;;;;;;4.38;2.63;;;;;;;19.16;46.14;99326.69;4793656;29;20053;-76
2020/12/11 08:07:48;;;;;;;4.95;2.42;;;;;;;19.18;46.05;99327.50;4789828;29;20122;-76
2020/12/11 08:10:32;;;;;;;3.40;1.83;;;;;;;19.07;45.72;99319.97;4789107;29;20054;-76
2020/12/11 08:13:08;;;;;;;3.63;2.42;;;;;;;19.06;46.00;99322.66;4806201;29;20035;-76
2020/12/11 08:15:35;;;;;;;2.47;2.20;;;;;;;19.09;46.22;99327.75;4803296;29;20042;-76
2020/12/11 08:18:30;;;;;;;3.25;2.08;;;;;;;19.08;46.25;99328.69;4801429;29;20394;-76
2020/12/11 08:21:00;;;;;;;3.60;2.15;;;;;;;19.05;46.27;99334.88;4794311;29;20047;-76
2020/12/11 08:23:38;;;;;;;2.47;1.83;;;;;;;18.92;46.14;99316.06;4807573;29;20453;-76
2020/12/11 08:26:20;;;;;;;2.75;1.98;;;;;;;18.96;46.23;99315.94;4811693;29;20034;-75
2020/12/11 08:29:09;;;;;;;2.58;2.00;;;;;;;18.96;46.40;99313.34;4825619;29;20075;-76
2020/12/11 08:31:39;;;;;;;2.40;1.88;;;;;;;19.14;45.92;99331.97;4806495;29;20073;-75
2020/12/11 08:34:09;;;;;;;3.38;1.95;;;;;;;19.13;45.81;99324.16;4803580;29;20135;-75
2020/12/11 08:36:38;;;;;;;2.65;1.90;;;;;;;19.04;46.06;99300.88;4813604;29;20031;-76
2020/12/11 08:39:28;;;;;;;2.45;1.65;;;;;;;19.08;45.82;99295.50;4804980;29;20030;-76
2020/12/11 08:42:42;;;;;;;3.65;2.35;;;;;;;19.19;45.89;99316.09;4799520;29;20081;-76
2020/12/11 08:53:09;;;;;;;2.95;2.33;;;;;;;19.21;46.18;99303.81;4800302;29;20123;-76
2020/12/11 08:55:37;;;;;;;2.22;1.83;;;;;;;19.15;45.83;99283.91;4804173;29;20027;-75
2020/12/11 08:58:03;;;;;;;2.72;2.00;;;;;;;19.23;45.98;99312.47;4804211;29;21519;-75
2020/12/11 09:00:28;;;;;;;2.63;1.63;;;;;;;19.18;45.67;99304.78;4790900;29;20050;-78
2020/12/11 09:02:53;;;;;;;2.95;2.17;;;;;;;19.16;45.80;99303.09;4791934;29;20039;-76
2020/12/11 09:05:21;;;;;;;2.45;1.42;;;;;;;19.08;45.92;99297.25;4762226;29;20039;-76
2020/12/11 09:07:47;;;;;;;2.72;2.05;;;;;;;19.03;45.98;99292.16;4778044;29;20035;-75
2020/12/11 09:10:14;;;;;;;3.15;1.65;;;;;;;19.05;45.87;99297.34;4793073;29;20173;-76
2020/12/11 09:12:39;;;;;;;3.83;2.00;;;;;;;18.98;45.98;99294.03;4789354;30;20543;-75
2020/12/11 09:15:08;;;;;;;3.10;1.88;;;;;;;18.99;46.18;99297.53;4805415;29;20030;-76
2020/12/11 09:17:34;;;;;;;1.77;1.40;;;;;;;18.99;46.11;99301.00;4807173;29;20117;-75
2020/12/11 09:20:00;;;;;;;2.42;1.83;;;;;;;18.94;46.11;99291.59;4807106;29;20171;-77
2020/12/11 09:22:25;;;;;;;2.40;1.85;;;;;;;18.95;45.99;99288.06;4786939;29;20475;-77
2020/12/11 09:24:50;;;;;;;2.10;1.48;;;;;;;18.99;46.08;99289.66;4791851;29;20047;-76
2020/12/11 09:27:16;;;;;;;2.00;1.40;;;;;;;18.95;46.11;99286.31;4806818;29;20042;-76
2020/12/11 09:29:45;;;;;;;2.70;1.80;;;;;;;18.98;46.22;99301.03;4822570;29;20035;-77
2020/12/11 09:32:17;;;;;;;2.35;1.88;;;;;;;18.95;45.90;99282.84;4791899;29;20034;-76
2020/12/11 09:34:42;;;;;;;3.28;2.25;;;;;;;18.92;45.43;99279.41;4822013;29;20035;-78
2020/12/11 09:37:07;;;;;;;2.75;1.85;;;;;;;18.99;45.22;99287.03;4791802;29;20363;-77
2020/12/11 09:39:35;;;;;;;3.05;2.08;;;;;;;18.98;45.79;99286.19;4800505;29;20026;-78
2020/12/11 09:42:17;;;;;;;4.68;2.08;;;;;;;19.02;45.23;99287.81;4797421;29;20054;-77
2020/12/11 09:52:29;;;;;;;9.40;2.22;;;;;;;19.07;45.01;99279.81;4807741;29;20478;-75
2020/12/11 09:54:55;;;;;;;3.63;2.10;;;;;;;19.10;45.03;99280.56;4780007;29;20058;-78
2020/12/11 09:57:20;;;;;;;2.90;1.92;;;;;;;19.11;44.97;99277.03;4762021;29;20115;-77
2020/12/11 09:59:55;;;;;;;3.50;1.90;;;;;;;19.07;45.33;99269.34;4791647;29;20034;-78
2020/12/11 10:02:37;;;;;;;4.15;1.35;;;;;;;19.17;45.08;99276.00;4779031;29;20043;-78
2020/12/11 10:05:04;;;;;;;3.15;2.33;;;;;;;19.15;44.96;99276.03;4807750;29;20041;-76
2020/12/11 10:07:29;;;;;;;4.05;1.70;;;;;;;19.14;45.07;99278.69;4777071;29;20034;-77
2020/12/11 10:09:54;;;;;;;4.65;1.88;;;;;;;19.17;45.09;99268.13;4763786;30;20036;-75
2020/12/11 10:12:22;;;;;;;2.53;1.80;;;;;;;19.19;44.89;99268.94;4780612;29;20031;-78
2020/12/11 10:14:54;;;;;;;2.60;1.48;;;;;;;19.12;45.03;99265.66;4791678;29;20109;-77
2020/12/11 10:17:19;;;;;;;2.17;1.73;;;;;;;19.18;45.32;99269.84;4805799;29;20031;-75
2020/12/11 10:19:48;;;;;;;2.80;1.75;;;;;;;19.18;44.82;99256.75;4806189;29;20038;-77
2020/12/11 10:22:13;;;;;;;4.07;1.60;;;;;;;19.14;44.61;99257.75;4806247;29;20081;-78
2020/12/11 10:24:39;;;;;;;1.85;1.38;;;;;;;19.17;45.28;99255.03;4806230;29;20444;-77
2020/12/11 10:27:04;;;;;;;2.05;1.52;;;;;;;19.16;44.75;99261.16;4807092;29;20027;-75
2020/12/11 10:29:29;;;;;;;2.40;1.45;;;;;;;19.15;44.91;99257.69;4806156;29;20034;-77
2020/12/11 10:31:55;;;;;;;2.65;1.73;;;;;;;19.15;45.22;99256.84;4821299;29;20543;-77
2020/12/11 10:34:20;;;;;;;2.95;1.80;;;;;;;19.19;45.07;99245.34;4805596;29;20426;-75
2020/12/11 10:36:46;;;;;;;2.20;1.40;;;;;;;19.13;44.71;99238.53;4790856;29;20062;-75
2020/12/11 10:39:11;;;;;;;4.65;2.25;;;;;;;19.16;45.38;99242.84;4790970;29;20497;-75
2020/12/11 10:41:37;;;;;;;2.40;1.45;;;;;;;19.17;45.19;99226.19;4805612;29;20509;-75
2020/12/11 10:44:03;;;;;;;3.38;1.48;;;;;;;19.21;44.70;99236.50;4789876;29;20487;-75
2020/12/11 10:46:28;;;;;;;1.90;1.52;;;;;;;19.14;45.07;99221.91;4789865;29;20047;-75
2020/12/11 10:48:54;;;;;;;4.00;1.80;;;;;;;19.22;45.03;99230.38;4805675;29;20035;-75
2020/12/11 10:51:19;;;;;;;2.20;1.70;;;;;;;19.21;44.67;99228.66;4790464;29;20031;-77
2020/12/11 10:53:46;;;;;;;1.80;1.40;;;;;;;19.14;44.74;99216.69;4790772;29;20041;-77
2020/12/11 10:56:13;;;;;;;1.75;1.42;;;;;;;19.23;45.22;99224.22;4790788;29;20097;-76
2020/12/11 10:58:39;;;;;;;2.67;1.92;;;;;;;19.15;44.82;99202.66;4806874;29;20104;-77
2020/12/11 11:01:09;;;;;;;1.88;1.45;;;;;;;19.17;44.78;99210.47;4807633;29;20470;-77
2020/12/11 11:03:35;;;;;;;1.92;1.20;;;;;;;19.22;45.05;99213.78;4806022;29;20092;-75
2020/12/11 11:06:17;;;;;;;2.63;1.70;;;;;;;19.22;44.85;99203.31;4804938;29;20027;-75
2020/12/11 11:11:08;;;;;;;2.85;1.70;;;;;;;19.19;45.44;99188.56;4807208;29;20082;-75
2020/12/11 11:13:41;;;;;;;2.13;1.50;;;;;;;19.19;44.74;99185.94;4790302;29;20043;-77
2020/12/11 11:16:07;;;;;;;1.90;1.50;;;;;;;19.17;44.68;99187.75;4805264;29;20399;-77
2020/12/11 11:24:11;;;;;;;2.00;1.40;;;;;;;19.14;44.49;99166.03;4789672;29;20043;-77
2020/12/11 11:29:02;;;;;;;1.90;1.40;;;;;;;19.26;44.77;99168.22;4805677;29;20035;-77
2020/12/11 11:31:27;;;;;;;3.38;1.77;;;;;;;19.21;44.77;99168.38;4804745;29;20064;-78
2020/12/11 11:33:53;;;;;;;2.85;1.35;;;;;;;19.19;45.13;99153.63;4775635;29;20035;-77
2020/12/11 11:36:18;;;;;;;2.80;1.42;;;;;;;19.28;44.92;99163.78;4804633;29;20035;-78
2020/12/11 11:38:43;;;;;;;1.70;1.15;;;;;;;19.21;44.78;99150.03;4775419;30;20032;-77
2020/12/11 11:41:11;;;;;;;1.85;1.20;;;;;;;19.21;45.34;99143.97;4782186;30;20571;-77
2020/12/11 11:44:08;;;;;;;2.25;1.50;;;;;;;19.26;44.95;99144.63;4772391;30;20035;-77
2020/12/11 11:46:24;;;;;;;1.58;1.30;;;;;;;19.23;44.59;99148.22;4800373;29;20498;-77
2020/12/11 11:48:49;;;;;;;1.95;1.50;;;;;;;19.25;45.38;99142.94;4774745;29;20027;-76
2020/12/11 11:51:23;;;;;;;1.40;1.10;;;;;;;19.24;45.07;99126.34;4761225;29;20034;-77
2020/12/11 11:53:48;;;;;;;2.72;1.60;;;;;;;19.27;44.48;99131.50;4806252;29;20037;-77
2020/12/11 11:56:28;;;;;;;1.98;1.40;;;;;;;19.25;44.94;99127.22;4817370;29;20047;-76
2020/12/11 11:58:54;;;;;;;2.13;1.75;;;;;;;19.25;44.76;99124.59;4793253;30;20035;-77
2020/12/11 12:01:21;;;;;;;2.28;1.20;;;;;;;19.24;44.71;99128.13;4793346;30;20050;-77
2020/12/11 12:03:47;;;;;;;2.13;1.70;;;;;;;19.26;45.16;99127.16;4823473;29;20027;-76
2020/12/11 12:06:12;;;;;;;2.78;1.90;;;;;;;19.25;44.61;99120.19;4802971;29;20075;-76